Stewartsville, Missouri
Current Conditions -  °F | °C
As of 10:53 PM on Wednesday 22 Oct 2014 (Local Time) from KSTJ Reporting Station
Clear Clear  
Wind Chill: 17°   Ceiling: Unl
Heat Index: 17°   Visibility: 10mi
Dew Point: 10°   Wind: 6mph
Humidity: 65%   Direction: 160°SSE
Pressure: 30.1"   Gusts: NA
Location:  39.75°N, 94.5°W
Report Text: KSTJ 230353Z AUTO 16005KT 10SM CLR 17/10 A3010 RMK AO2 SLP189 T01670100
Loading
Personal Weather Stations






























Interactive Weather Map
Tropical Storm Tracking
New forecast layout! Learn more

10-Day Weather Forecast

Advertisements
Track Severe Weather on mobile